createdAt,value
2022-12-20T00:00:34.595Z,-3.10
2022-12-20T00:01:38.078Z,-3.12
2022-12-20T00:02:41.217Z,-3.15
2022-12-20T00:03:44.684Z,-3.18
2022-12-20T00:04:47.976Z,-3.21
2022-12-20T00:05:51.203Z,-3.24
2022-12-20T00:06:54.350Z,-3.25
2022-12-20T00:07:57.409Z,-3.27
2022-12-20T00:09:02.072Z,-3.28
2022-12-20T00:10:06.379Z,-3.31
2022-12-20T00:11:09.816Z,-3.32
2022-12-20T00:12:13.017Z,-3.33
2022-12-20T00:13:16.137Z,-3.33
2022-12-20T00:14:19.631Z,-3.35
2022-12-20T00:15:22.801Z,-3.36
2022-12-20T00:16:28.002Z,-3.37
2022-12-20T00:17:31.411Z,-3.38
2022-12-20T00:18:35.269Z,-3.39
2022-12-20T00:19:38.501Z,-3.42
2022-12-20T00:20:41.492Z,-3.43
2022-12-20T00:21:44.430Z,-3.43
2022-12-20T00:22:47.834Z,-3.43
2022-12-20T00:23:52.190Z,-3.45
2022-12-20T00:24:55.426Z,-3.44
2022-12-20T00:26:04.089Z,-3.45
2022-12-20T00:27:07.349Z,-3.45
2022-12-20T00:28:10.594Z,-3.45
2022-12-20T00:29:14.193Z,-3.45
2022-12-20T00:30:18.307Z,-3.47
2022-12-20T00:31:23.249Z,-3.48
2022-12-20T00:32:27.460Z,-3.49
2022-12-20T00:33:30.733Z,-3.49
2022-12-20T00:34:33.834Z,-3.50
2022-12-20T00:35:43.288Z,-3.51
2022-12-20T00:36:46.566Z,-3.52
2022-12-20T00:37:49.767Z,-3.55
2022-12-20T00:38:54.738Z,-3.56
2022-12-20T00:39:57.900Z,-3.57
2022-12-20T00:41:07.043Z,-3.56
2022-12-20T00:42:12.078Z,-3.58
2022-12-20T00:43:15.389Z,-3.60
2022-12-20T00:44:18.654Z,-3.59
2022-12-20T00:45:21.743Z,-3.61
2022-12-20T00:46:25.534Z,-3.62
2022-12-20T00:47:28.605Z,-3.63
2022-12-20T00:48:32.255Z,-3.64
2022-12-20T00:49:35.418Z,-3.65
2022-12-20T00:50:38.570Z,-3.65
2022-12-20T00:51:41.855Z,-3.67
2022-12-20T00:52:45.180Z,-3.68
2022-12-20T00:53:48.654Z,-3.69
2022-12-20T00:54:52.916Z,-3.69
2022-12-20T00:55:56.476Z,-3.70
2022-12-20T00:56:59.876Z,-3.70
2022-12-20T00:58:03.100Z,-3.72
2022-12-20T00:59:06.266Z,-3.71
2022-12-20T01:00:11.096Z,-3.72
2022-12-20T01:01:23.685Z,-3.70
2022-12-20T01:02:27.214Z,-3.70
2022-12-20T01:03:30.854Z,-3.70
2022-12-20T01:04:34.092Z,-3.72
2022-12-20T01:05:37.741Z,-3.72
2022-12-20T01:06:41.125Z,-3.73
2022-12-20T01:07:44.333Z,-3.72
2022-12-20T01:08:47.833Z,-3.74
2022-12-20T01:09:51.344Z,-3.74
2022-12-20T01:11:09.961Z,-3.74
2022-12-20T01:12:13.186Z,-3.74
2022-12-20T01:13:16.353Z,-3.75
2022-12-20T01:14:19.740Z,-3.76
2022-12-20T01:15:22.821Z,-3.77
2022-12-20T01:16:32.615Z,-3.79
2022-12-20T01:17:35.788Z,-3.80
2022-12-20T01:18:39.580Z,-3.81
2022-12-20T01:19:42.806Z,-3.82
2022-12-20T01:20:46.146Z,-3.82
2022-12-20T01:21:49.397Z,-3.83
2022-12-20T01:22:52.452Z,-3.83
2022-12-20T01:23:56.012Z,-3.85
2022-12-20T01:24:59.308Z,-3.85
2022-12-20T01:26:06.025Z,-3.85
2022-12-20T01:27:09.275Z,-3.86
2022-12-20T01:28:12.504Z,-3.86
2022-12-20T01:29:15.897Z,-3.86
2022-12-20T01:30:19.086Z,-3.84
2022-12-20T01:31:23.513Z,-3.84
2022-12-20T01:32:26.687Z,-3.84
2022-12-20T01:33:29.916Z,-3.84
2022-12-20T01:34:33.051Z,-3.85
2022-12-20T01:35:36.180Z,-3.85
2022-12-20T01:36:39.476Z,-3.85
2022-12-20T01:37:42.865Z,-3.87
2022-12-20T01:38:46.665Z,-3.87
2022-12-20T01:39:49.793Z,-3.88
2022-12-20T01:40:54.322Z,-3.89
2022-12-20T01:41:57.502Z,-3.90
2022-12-20T01:43:00.668Z,-3.91
2022-12-20T01:44:22.219Z,-3.91
2022-12-20T01:45:28.750Z,-3.94
2022-12-20T01:46:34.107Z,-3.95
2022-12-20T01:47:37.917Z,-3.95
2022-12-20T01:48:44.009Z,-3.94
2022-12-20T01:49:50.156Z,-3.96
2022-12-20T01:50:53.725Z,-3.98
2022-12-20T01:52:09.139Z,-3.99
2022-12-20T01:53:12.421Z,-4.02
2022-12-20T01:54:19.011Z,-4.04
2022-12-20T01:55:25.713Z,-4.02
2022-12-20T01:56:29.212Z,-4.02
2022-12-20T01:57:55.253Z,-4.00
2022-12-20T01:58:59.933Z,-3.98
2022-12-20T02:00:04.674Z,-3.97
2022-12-20T02:01:10.395Z,-3.97
2022-12-20T02:02:14.002Z,-3.96
2022-12-20T02:03:17.408Z,-3.94
2022-12-20T02:04:20.530Z,-3.93
2022-12-20T02:05:23.905Z,-3.92
2022-12-20T02:06:27.534Z,-3.90
2022-12-20T02:07:32.674Z,-3.89
2022-12-20T02:08:35.864Z,-3.89
2022-12-20T02:09:39.817Z,-3.89
2022-12-20T02:11:16.826Z,-3.89
2022-12-20T02:12:26.228Z,-3.89
2022-12-20T02:13:42.144Z,-3.92
2022-12-20T02:14:54.703Z,-3.95
2022-12-20T02:15:58.537Z,-3.97
2022-12-20T02:17:12.108Z,-3.97
2022-12-20T02:18:21.865Z,-3.98
2022-12-20T02:19:31.531Z,-4.00
2022-12-20T02:20:56.503Z,-4.01
2022-12-20T02:22:12.109Z,-4.01
2022-12-20T02:23:18.847Z,-4.01
2022-12-20T02:24:42.029Z,-4.02
2022-12-20T02:25:54.557Z,-4.01
2022-12-20T02:27:27.134Z,-4.01
2022-12-20T02:30:02.621Z,-3.92
2022-12-20T02:31:09.369Z,-4.04
2022-12-20T02:32:27.916Z,-4.06
2022-12-20T02:33:31.303Z,-4.07
2022-12-20T02:34:37.637Z,-4.06
2022-12-20T02:35:42.133Z,-4.06
2022-12-20T02:36:46.466Z,-4.04
2022-12-20T02:37:52.683Z,-4.04
2022-12-20T02:38:55.980Z,-4.04
2022-12-20T02:40:00.524Z,-4.03
2022-12-20T02:41:25.291Z,-4.02
2022-12-20T02:42:29.644Z,-4.00
2022-12-20T02:43:54.299Z,-4.01
2022-12-20T02:45:16.253Z,-4.01
2022-12-20T02:46:20.796Z,-4.01
2022-12-20T02:47:36.379Z,-4.02
2022-12-20T02:48:41.378Z,-4.03
2022-12-20T02:49:47.031Z,-4.03
2022-12-20T02:50:53.698Z,-4.02
2022-12-20T02:51:58.855Z,-3.99
2022-12-20T02:53:03.228Z,-3.98
2022-12-20T02:54:06.545Z,-3.95
2022-12-20T02:55:10.657Z,-3.95
2022-12-20T02:56:23.689Z,-3.95
2022-12-20T02:57:52.210Z,-3.95
2022-12-20T03:00:21.918Z,-3.99
2022-12-20T03:01:28.672Z,-3.99
2022-12-20T03:02:40.846Z,-3.98
2022-12-20T03:03:44.388Z,-3.96
2022-12-20T03:04:48.552Z,-3.94
2022-12-20T03:05:54.957Z,-3.92
2022-12-20T03:07:06.540Z,-3.91
2022-12-20T03:08:10.971Z,-3.89
2022-12-20T03:09:14.191Z,-3.88
2022-12-20T03:10:17.919Z,-3.87
2022-12-20T03:11:21.062Z,-3.88
2022-12-20T03:12:24.291Z,-3.90
2022-12-20T03:13:27.396Z,-3.91
2022-12-20T03:14:35.176Z,-3.92
2022-12-20T03:15:39.372Z,-3.93
2022-12-20T03:16:43.016Z,-3.95
2022-12-20T03:17:46.187Z,-3.95
2022-12-20T03:18:49.217Z,-3.94
2022-12-20T03:19:52.549Z,-3.92
2022-12-20T03:20:55.778Z,-3.91
2022-12-20T03:21:59.218Z,-3.91
2022-12-20T03:23:02.454Z,-3.90
2022-12-20T03:24:05.937Z,-3.91
2022-12-20T03:25:09.229Z,-3.92
2022-12-20T03:26:12.477Z,-3.92
2022-12-20T03:27:17.521Z,-3.92
2022-12-20T03:28:20.706Z,-3.91
2022-12-20T03:29:23.906Z,-3.91
2022-12-20T03:30:27.058Z,-3.90
2022-12-20T03:31:30.331Z,-3.91
2022-12-20T03:32:33.705Z,-3.88
2022-12-20T03:33:36.951Z,-3.88
2022-12-20T03:34:41.856Z,-3.89
2022-12-20T03:35:47.642Z,-3.88
2022-12-20T03:36:50.967Z,-3.89
2022-12-20T03:37:55.107Z,-3.90
2022-12-20T03:38:58.577Z,-3.90
2022-12-20T03:40:02.344Z,-3.92
2022-12-20T03:41:05.852Z,-3.95
2022-12-20T03:42:09.228Z,-3.97
2022-12-20T03:43:12.411Z,-3.99
2022-12-20T03:44:15.563Z,-4.00
2022-12-20T03:45:18.802Z,-3.99
2022-12-20T03:46:22.180Z,-3.98
2022-12-20T03:47:25.981Z,-3.99
2022-12-20T03:48:29.272Z,-3.98
2022-12-20T03:49:32.448Z,-3.98
2022-12-20T03:50:36.641Z,-4.00
2022-12-20T03:51:39.814Z,-4.01
2022-12-20T03:52:43.205Z,-4.02
2022-12-20T03:53:46.742Z,-4.03
2022-12-20T03:54:50.262Z,-4.05
2022-12-20T03:55:55.257Z,-4.05
2022-12-20T03:56:58.707Z,-4.07
2022-12-20T03:58:01.989Z,-4.06
2022-12-20T03:59:07.027Z,-4.07
2022-12-20T04:00:12.335Z,-4.07
2022-12-20T04:02:31.500Z,-4.00
2022-12-20T04:03:34.812Z,-4.10
2022-12-20T04:04:38.130Z,-4.13
2022-12-20T04:05:42.205Z,-4.14
2022-12-20T04:06:46.269Z,-4.15
2022-12-20T04:07:49.336Z,-4.16
2022-12-20T04:08:52.573Z,-4.15
2022-12-20T04:10:00.469Z,-4.15
2022-12-20T04:11:16.385Z,-4.16
2022-12-20T04:12:26.933Z,-4.15
2022-12-20T04:13:30.117Z,-4.16
2022-12-20T04:14:33.379Z,-4.16
2022-12-20T04:15:36.366Z,-4.19
2022-12-20T04:16:39.803Z,-4.21
2022-12-20T04:17:43.051Z,-4.24
2022-12-20T04:18:46.128Z,-4.29
2022-12-20T04:19:49.492Z,-4.31
2022-12-20T04:20:54.397Z,-4.33
2022-12-20T04:22:05.109Z,-4.35
2022-12-20T04:23:06.188Z,-4.36
2022-12-20T04:24:10.033Z,-4.40
2022-12-20T04:25:18.647Z,-4.40
2022-12-20T04:26:22.422Z,-4.41
2022-12-20T04:27:25.721Z,-4.42
2022-12-20T04:28:29.849Z,-4.44
2022-12-20T04:29:33.250Z,-4.48
2022-12-20T04:30:36.602Z,-4.49
2022-12-20T04:31:40.417Z,-4.51
2022-12-20T04:32:43.577Z,-4.54
2022-12-20T04:33:48.155Z,-4.55
2022-12-20T04:34:51.723Z,-4.55
2022-12-20T04:35:55.336Z,-4.58
2022-12-20T04:36:58.717Z,-4.59
2022-12-20T04:38:06.269Z,-4.62
2022-12-20T04:39:09.637Z,-4.64
2022-12-20T04:40:14.733Z,-4.67
2022-12-20T04:41:22.890Z,-4.69
2022-12-20T04:42:27.942Z,-4.70
2022-12-20T04:43:31.170Z,-4.71
2022-12-20T04:44:34.960Z,-4.73
2022-12-20T04:45:38.995Z,-4.75
2022-12-20T04:46:42.435Z,-4.77
2022-12-20T04:47:47.521Z,-4.78
2022-12-20T04:48:58.384Z,-4.76
2022-12-20T04:49:58.854Z,-4.76
2022-12-20T04:51:02.024Z,-4.76
2022-12-20T04:52:23.883Z,-4.74
2022-12-20T04:53:45.240Z,-4.74
2022-12-20T04:54:48.629Z,-4.74
2022-12-20T04:55:56.472Z,-4.74
2022-12-20T04:57:00.577Z,-4.75
2022-12-20T04:58:07.537Z,-4.74
2022-12-20T04:59:08.887Z,-4.70
2022-12-20T05:00:14.837Z,-4.69
2022-12-20T05:01:20.230Z,-4.68
2022-12-20T05:02:25.354Z,-4.66
2022-12-20T05:03:34.722Z,-4.63
2022-12-20T05:04:38.006Z,-4.59
2022-12-20T05:05:41.396Z,-4.53
2022-12-20T05:06:44.687Z,-4.53
2022-12-20T05:07:48.235Z,-4.48
2022-12-20T05:08:51.449Z,-4.46
2022-12-20T05:09:54.673Z,-4.45
2022-12-20T05:10:58.018Z,-4.43
2022-12-20T05:12:01.204Z,-4.44
2022-12-20T05:13:09.168Z,-4.45
2022-12-20T05:14:11.640Z,-4.45
2022-12-20T05:15:14.976Z,-4.45
2022-12-20T05:16:18.728Z,-4.46
2022-12-20T05:17:22.082Z,-4.46
2022-12-20T05:18:26.212Z,-4.46
2022-12-20T05:19:31.120Z,-4.48
2022-12-20T05:20:35.255Z,-4.48
2022-12-20T05:21:56.711Z,-4.48
2022-12-20T05:23:18.261Z,-4.50
2022-12-20T05:24:40.387Z,-4.54
2022-12-20T05:25:52.002Z,-4.60
2022-12-20T05:26:55.269Z,-4.67
2022-12-20T05:27:58.671Z,-4.71
2022-12-20T05:29:02.481Z,-4.74
2022-12-20T05:30:07.111Z,-4.76
2022-12-20T05:31:10.558Z,-4.78
2022-12-20T05:32:14.409Z,-4.79
2022-12-20T05:33:18.693Z,-4.79
2022-12-20T05:34:21.877Z,-4.80
2022-12-20T05:35:26.853Z,-4.78
2022-12-20T05:36:32.313Z,-4.79
2022-12-20T05:37:35.842Z,-4.76
2022-12-20T05:38:41.011Z,-4.75
2022-12-20T05:39:45.879Z,-4.74
2022-12-20T05:40:51.238Z,-4.74
2022-12-20T05:41:54.536Z,-4.74
2022-12-20T05:43:00.125Z,-4.74
2022-12-20T05:44:05.973Z,-4.72
2022-12-20T05:45:10.941Z,-4.72
2022-12-20T05:46:16.200Z,-4.73
2022-12-20T05:47:25.303Z,-4.75
2022-12-20T05:48:30.335Z,-4.76
2022-12-20T05:49:33.972Z,-4.77
2022-12-20T05:50:38.210Z,-4.78
2022-12-20T05:51:43.232Z,-4.75
2022-12-20T05:52:48.079Z,-4.75
2022-12-20T05:53:51.826Z,-4.72
2022-12-20T05:54:56.553Z,-4.71
2022-12-20T05:56:01.651Z,-4.69
2022-12-20T05:57:06.670Z,-4.67
2022-12-20T05:58:13.161Z,-4.67
2022-12-20T05:59:18.020Z,-4.66
2022-12-20T06:00:22.406Z,-4.68
2022-12-20T06:01:26.322Z,-4.69
2022-12-20T06:02:31.400Z,-4.69
2022-12-20T06:03:39.975Z,-4.69
2022-12-20T06:04:45.155Z,-4.70
2022-12-20T06:05:50.360Z,-4.70
2022-12-20T06:06:55.480Z,-4.70
2022-12-20T06:07:59.391Z,-4.71
2022-12-20T06:09:03.547Z,-4.71
2022-12-20T06:10:11.586Z,-4.70
2022-12-20T06:11:16.631Z,-4.70
2022-12-20T06:12:30.685Z,-4.71
2022-12-20T06:13:34.744Z,-4.73
2022-12-20T06:14:38.625Z,-4.73
2022-12-20T06:15:41.693Z,-4.73
2022-12-20T06:16:45.046Z,-4.73
2022-12-20T06:17:48.610Z,-4.75
2022-12-20T06:18:51.666Z,-4.74
2022-12-20T06:19:54.711Z,-4.73
2022-12-20T06:20:58.034Z,-4.73
2022-12-20T06:22:01.160Z,-4.75
2022-12-20T06:23:21.032Z,-4.75
2022-12-20T06:24:26.712Z,-4.76
2022-12-20T06:25:30.833Z,-4.75
2022-12-20T06:26:36.163Z,-4.74
2022-12-20T06:27:41.764Z,-4.72
2022-12-20T06:28:52.011Z,-4.70
2022-12-20T06:29:57.006Z,-4.67
2022-12-20T06:31:02.138Z,-4.64
2022-12-20T06:32:13.046Z,-4.60
2022-12-20T06:33:16.683Z,-4.56
2022-12-20T06:34:20.223Z,-4.54
2022-12-20T06:35:23.396Z,-4.52
2022-12-20T06:36:27.332Z,-4.50
2022-12-20T06:37:31.648Z,-4.46
2022-12-20T06:38:34.837Z,-4.42
2022-12-20T06:39:38.056Z,-4.40
2022-12-20T06:40:43.486Z,-4.37
2022-12-20T06:41:46.703Z,-4.34
2022-12-20T06:44:02.022Z,-4.17
2022-12-20T06:45:05.973Z,-4.29
2022-12-20T06:46:09.427Z,-4.27
2022-12-20T06:47:13.025Z,-4.26
2022-12-20T06:48:16.206Z,-4.22
2022-12-20T06:49:20.064Z,-4.18
2022-12-20T06:50:23.779Z,-4.16
2022-12-20T06:51:26.941Z,-4.16
2022-12-20T06:52:30.377Z,-4.14
2022-12-20T06:53:34.725Z,-4.15
2022-12-20T06:54:37.903Z,-4.14
2022-12-20T06:55:41.236Z,-4.15
2022-12-20T06:56:44.476Z,-4.14
2022-12-20T06:57:48.454Z,-4.15
2022-12-20T06:58:51.951Z,-4.14
2022-12-20T06:59:55.085Z,-4.13
2022-12-20T07:00:58.992Z,-4.11
2022-12-20T07:02:02.696Z,-4.09
2022-12-20T07:03:06.246Z,-4.08
2022-12-20T07:04:09.551Z,-4.06
2022-12-20T07:05:12.731Z,-4.04
2022-12-20T07:06:15.999Z,-4.02
2022-12-20T07:07:19.253Z,-4.00
2022-12-20T07:08:23.791Z,-3.98
2022-12-20T07:09:27.000Z,-3.95
2022-12-20T07:10:32.328Z,-3.94
2022-12-20T07:11:37.071Z,-3.91
2022-12-20T07:12:45.628Z,-3.88
2022-12-20T07:13:45.447Z,-3.86
2022-12-20T07:14:49.242Z,-3.82
2022-12-20T07:15:58.427Z,-3.80
2022-12-20T07:17:02.321Z,-3.77
2022-12-20T07:18:06.329Z,-3.75
2022-12-20T07:19:11.864Z,-3.72
2022-12-20T07:20:16.070Z,-3.67
2022-12-20T07:21:20.019Z,-3.64
2022-12-20T07:22:23.136Z,-3.61
2022-12-20T07:23:26.327Z,-3.58
2022-12-20T07:24:29.608Z,-3.56
2022-12-20T07:25:32.686Z,-3.54
2022-12-20T07:26:36.228Z,-3.51
2022-12-20T07:27:40.219Z,-3.49
2022-12-20T07:28:43.580Z,-3.47
2022-12-20T07:29:46.862Z,-3.46
2022-12-20T07:30:50.385Z,-3.46
2022-12-20T07:31:53.593Z,-3.47
2022-12-20T07:32:56.864Z,-3.47
2022-12-20T07:34:00.070Z,-3.47
2022-12-20T07:35:03.306Z,-3.46
2022-12-20T07:36:10.327Z,-3.46
2022-12-20T07:37:13.536Z,-3.47
2022-12-20T07:38:16.832Z,-3.48
2022-12-20T07:39:20.000Z,-3.48
2022-12-20T07:40:23.676Z,-3.46
2022-12-20T07:41:27.818Z,-3.46
2022-12-20T07:42:36.216Z,-3.44
2022-12-20T07:43:36.462Z,-3.42
2022-12-20T07:44:40.291Z,-3.38
2022-12-20T07:45:43.553Z,-3.34
2022-12-20T07:46:47.209Z,-3.28
2022-12-20T07:47:50.425Z,-3.24
2022-12-20T07:48:53.595Z,-3.21
2022-12-20T07:49:56.940Z,-3.17
2022-12-20T07:51:06.678Z,-3.14
2022-12-20T07:52:13.364Z,-3.11
2022-12-20T07:53:17.361Z,-3.05
2022-12-20T07:54:32.852Z,-3.03
2022-12-20T07:55:40.343Z,-3.01
2022-12-20T07:56:47.525Z,-3.00
2022-12-20T07:59:09.981Z,-2.88
2022-12-20T08:00:14.697Z,-2.98
2022-12-20T08:01:19.066Z,-2.97
2022-12-20T08:02:26.023Z,-2.98
2022-12-20T08:03:33.069Z,-2.97
2022-12-20T08:04:36.557Z,-2.98
2022-12-20T08:05:43.243Z,-2.95
2022-12-20T08:06:47.410Z,-2.91
2022-12-20T08:07:58.453Z,-2.88
2022-12-20T08:09:00.485Z,-2.85
2022-12-20T08:10:06.419Z,-2.82
2022-12-20T08:11:10.982Z,-2.80
2022-12-20T08:12:17.000Z,-2.77
2022-12-20T08:13:20.075Z,-2.75
2022-12-20T08:14:23.314Z,-2.76
2022-12-20T08:15:28.262Z,-2.74
2022-12-20T08:16:31.793Z,-2.74
2022-12-20T08:17:35.066Z,-2.74
2022-12-20T08:18:38.258Z,-2.72
2022-12-20T08:19:41.413Z,-2.70
2022-12-20T08:20:44.692Z,-2.69
2022-12-20T08:21:47.864Z,-2.67
2022-12-20T08:22:50.965Z,-2.65
2022-12-20T08:23:54.301Z,-2.64
2022-12-20T08:24:57.480Z,-2.63
2022-12-20T08:26:01.666Z,-2.63
2022-12-20T08:27:04.865Z,-2.61
2022-12-20T08:28:08.009Z,-2.59
2022-12-20T08:29:11.165Z,-2.58
2022-12-20T08:30:14.810Z,-2.56
2022-12-20T08:31:18.013Z,-2.56
2022-12-20T08:32:21.200Z,-2.56
2022-12-20T08:33:24.242Z,-2.55
2022-12-20T08:34:28.228Z,-2.55
2022-12-20T08:35:31.388Z,-2.56
2022-12-20T08:36:34.671Z,-2.56
2022-12-20T08:37:37.841Z,-2.59
2022-12-20T08:38:41.386Z,-2.61
2022-12-20T08:39:44.767Z,-2.62
2022-12-20T08:40:48.063Z,-2.62
2022-12-20T08:41:51.224Z,-2.63
2022-12-20T08:42:54.444Z,-2.63
2022-12-20T08:43:57.716Z,-2.64
2022-12-20T08:45:00.995Z,-2.65
2022-12-20T08:46:06.416Z,-2.66
2022-12-20T08:47:09.924Z,-2.65
2022-12-20T08:48:13.168Z,-2.67
2022-12-20T08:49:16.493Z,-2.68
2022-12-20T08:50:19.674Z,-2.68
2022-12-20T08:51:22.860Z,-2.70
2022-12-20T08:52:26.169Z,-2.68
2022-12-20T08:53:30.122Z,-2.70
2022-12-20T08:54:33.293Z,-2.70
2022-12-20T08:55:36.616Z,-2.68
2022-12-20T08:56:39.898Z,-2.69
2022-12-20T08:57:43.080Z,-2.68
2022-12-20T08:58:46.840Z,-2.68
2022-12-20T08:59:50.010Z,-2.68
2022-12-20T09:00:53.443Z,-2.67
2022-12-20T09:01:56.734Z,-2.65
2022-12-20T09:03:00.302Z,-2.64
2022-12-20T09:04:04.191Z,-2.60
2022-12-20T09:05:07.715Z,-2.57
2022-12-20T09:06:14.285Z,-2.55
2022-12-20T09:07:17.474Z,-2.52
2022-12-20T09:08:20.743Z,-2.49
2022-12-20T09:09:24.113Z,-2.46
2022-12-20T09:10:27.402Z,-2.43
2022-12-20T09:11:30.912Z,-2.39
2022-12-20T09:12:37.780Z,-2.35
2022-12-20T09:13:44.220Z,-2.32
2022-12-20T09:14:47.362Z,-2.28
2022-12-20T09:15:50.557Z,-2.26
2022-12-20T09:16:54.233Z,-2.24
2022-12-20T09:17:57.501Z,-2.23
2022-12-20T09:19:05.593Z,-2.21
2022-12-20T09:20:07.882Z,-2.20
2022-12-20T09:21:11.536Z,-2.20
2022-12-20T09:22:14.733Z,-2.18
2022-12-20T09:23:17.818Z,-2.16
2022-12-20T09:24:21.008Z,-2.16
2022-12-20T09:25:24.191Z,-2.15
2022-12-20T09:26:27.615Z,-2.15
2022-12-20T09:27:30.768Z,-2.13
2022-12-20T09:28:34.136Z,-2.09
2022-12-20T09:29:37.270Z,-2.07
2022-12-20T09:30:40.619Z,-2.03
2022-12-20T09:31:43.876Z,-1.99
2022-12-20T09:32:47.444Z,-1.98
2022-12-20T09:33:56.108Z,-1.95
2022-12-20T09:34:59.304Z,-1.95
2022-12-20T09:36:03.279Z,-1.93
2022-12-20T09:37:06.517Z,-1.94
2022-12-20T09:38:09.758Z,-1.95
2022-12-20T09:39:13.930Z,-1.93
2022-12-20T09:40:20.547Z,-1.91
2022-12-20T09:41:39.339Z,-1.89
2022-12-20T09:42:42.482Z,-1.86
2022-12-20T09:43:45.648Z,-1.83
2022-12-20T09:44:48.949Z,-1.79
2022-12-20T09:45:56.503Z,-1.77
2022-12-20T09:47:09.774Z,-1.74
2022-12-20T09:48:14.939Z,-1.71
2022-12-20T09:49:18.977Z,-1.67
2022-12-20T09:51:45.565Z,-1.48
2022-12-20T09:53:12.151Z,-1.54
2022-12-20T09:54:41.402Z,-1.51
2022-12-20T09:57:30.827Z,-1.36
2022-12-20T09:58:37.516Z,-1.47
2022-12-20T09:59:49.017Z,-1.46
2022-12-20T10:00:53.992Z,-1.45
2022-12-20T10:01:55.047Z,-1.43
2022-12-20T10:03:08.515Z,-1.40
2022-12-20T10:04:09.690Z,-1.39
2022-12-20T10:05:19.489Z,-1.36
2022-12-20T10:06:35.555Z,-1.35
2022-12-20T10:07:45.260Z,-1.33
2022-12-20T10:09:03.927Z,-1.31
2022-12-20T10:10:19.816Z,-1.28
2022-12-20T10:13:32.974Z,-1.08
2022-12-20T10:14:45.482Z,-1.18
2022-12-20T10:15:54.935Z,-1.18
2022-12-20T10:17:21.613Z,-1.18
2022-12-20T10:18:34.000Z,-1.18
2022-12-20T10:20:03.274Z,-1.17
2022-12-20T10:21:19.038Z,-1.16
2022-12-20T10:22:37.694Z,-1.14
2022-12-20T10:23:53.274Z,-1.14
2022-12-20T10:25:15.089Z,-1.12
2022-12-20T10:26:18.204Z,-1.09
2022-12-20T10:27:21.924Z,-1.06
2022-12-20T10:28:31.009Z,-1.05
2022-12-20T10:29:34.352Z,-1.01
2022-12-20T10:30:37.483Z,-0.98
2022-12-20T10:31:40.818Z,-0.95
2022-12-20T10:32:47.087Z,-0.92
2022-12-20T10:33:50.358Z,-0.89
2022-12-20T10:35:03.034Z,-0.86
2022-12-20T10:36:21.967Z,-0.82
2022-12-20T10:37:25.954Z,-0.80
2022-12-20T10:38:32.758Z,-0.77
2022-12-20T10:39:42.225Z,-0.74
2022-12-20T10:41:20.613Z,-0.71
2022-12-20T10:42:27.658Z,-0.68
2022-12-20T10:43:43.032Z,-0.66
2022-12-20T10:44:46.061Z,-0.64
2022-12-20T10:46:01.649Z,-0.63
2022-12-20T10:47:08.367Z,-0.60
2022-12-20T10:48:36.086Z,-0.59
2022-12-20T10:49:41.456Z,-0.56
2022-12-20T10:50:48.123Z,-0.55
2022-12-20T10:51:54.312Z,-0.53
2022-12-20T10:53:13.049Z,-0.52
2022-12-20T10:54:25.824Z,-0.51
2022-12-20T10:55:35.226Z,-0.49
2022-12-20T10:56:38.658Z,-0.46
2022-12-20T10:57:42.192Z,-0.44
2022-12-20T10:58:54.591Z,-0.44
2022-12-20T11:00:04.805Z,-0.43
2022-12-20T11:01:14.293Z,-0.42
2022-12-20T11:02:38.766Z,-0.42
2022-12-20T11:03:38.064Z,-0.39
2022-12-20T11:04:41.367Z,-0.39
2022-12-20T11:06:03.637Z,-0.38
2022-12-20T11:07:25.335Z,-0.38
2022-12-20T11:08:46.740Z,-0.34
2022-12-20T11:09:38.281Z,-0.34
2022-12-20T11:10:41.608Z,-0.34
2022-12-20T11:12:05.146Z,-0.34
2022-12-20T11:13:17.734Z,-0.32
2022-12-20T11:14:32.767Z,-0.31
2022-12-20T11:15:36.590Z,-0.31
2022-12-20T11:16:43.335Z,-0.31
2022-12-20T11:17:50.824Z,-0.31
2022-12-20T11:19:22.737Z,-0.30
2022-12-20T11:20:44.541Z,-0.30
2022-12-20T11:22:00.167Z,-0.29
2022-12-20T11:23:09.643Z,-0.29
2022-12-20T11:24:16.257Z,-0.28
2022-12-20T11:25:40.895Z,-0.27
2022-12-20T11:27:11.949Z,-0.26
2022-12-20T11:28:24.646Z,-0.24
2022-12-20T11:29:46.321Z,-0.23
2022-12-20T11:30:56.397Z,-0.21
2022-12-20T11:32:22.894Z,-0.20
2022-12-20T11:33:49.038Z,-0.19
2022-12-20T11:35:05.023Z,-0.18
2022-12-20T11:36:11.909Z,-0.18
2022-12-20T11:37:18.751Z,-0.18
2022-12-20T11:38:42.249Z,-0.17
2022-12-20T11:40:04.872Z,-0.16
2022-12-20T11:41:20.368Z,-0.15
2022-12-20T11:42:43.469Z,-0.14
2022-12-20T11:44:24.718Z,-0.12
2022-12-20T11:45:30.331Z,-0.12
2022-12-20T11:48:28.451Z,0.02
2022-12-20T11:49:38.364Z,-0.09
2022-12-20T11:50:47.865Z,-0.06
2022-12-20T11:52:06.447Z,-0.04
2022-12-20T11:53:29.839Z,-0.02
2022-12-20T11:54:45.484Z,0.00
2022-12-20T11:55:52.131Z,0.03
2022-12-20T11:57:01.844Z,0.07
2022-12-20T11:58:23.759Z,0.09
2022-12-20T11:59:38.069Z,0.13
2022-12-20T12:00:45.035Z,0.14
2022-12-20T12:01:51.940Z,0.17
2022-12-20T12:03:10.923Z,0.19
2022-12-20T12:04:23.268Z,0.20
2022-12-20T12:05:33.002Z,0.22
2022-12-20T12:06:45.574Z,0.24
2022-12-20T12:07:54.746Z,0.25
2022-12-20T12:09:07.510Z,0.25
2022-12-20T12:10:17.525Z,0.26
2022-12-20T12:12:47.243Z,0.27
2022-12-20T12:13:51.695Z,0.29
2022-12-20T12:15:16.071Z,0.30
2022-12-20T12:16:22.720Z,0.30
2022-12-20T12:17:38.590Z,0.33
2022-12-20T12:18:41.994Z,0.34
2022-12-20T12:19:48.577Z,0.35
2022-12-20T12:21:17.292Z,0.36
2022-12-20T12:22:23.922Z,0.37
2022-12-20T12:23:48.610Z,0.38
2022-12-20T12:24:55.399Z,0.38
2022-12-20T12:26:02.131Z,0.40
2022-12-20T12:27:06.550Z,0.39
2022-12-20T12:28:13.454Z,0.40
2022-12-20T12:29:18.876Z,0.41
2022-12-20T12:30:22.033Z,0.41
2022-12-20T12:33:07.701Z,0.52
2022-12-20T12:34:43.147Z,0.41
2022-12-20T12:36:06.229Z,0.39
2022-12-20T12:37:28.068Z,0.38
2022-12-20T12:40:52.284Z,0.44
2022-12-20T12:42:07.667Z,0.30
2022-12-20T12:43:25.797Z,0.28
2022-12-20T12:44:41.683Z,0.26
2022-12-20T12:45:51.474Z,0.26
2022-12-20T12:46:58.538Z,0.27
2022-12-20T12:48:07.961Z,0.28
2022-12-20T12:49:21.126Z,0.30
2022-12-20T12:50:30.426Z,0.31
2022-12-20T12:51:36.598Z,0.33
2022-12-20T12:52:52.364Z,0.34
2022-12-20T12:54:04.786Z,0.34
2022-12-20T12:55:36.371Z,0.34
2022-12-20T12:56:45.616Z,0.35
2022-12-20T12:57:56.045Z,0.35
2022-12-20T12:59:11.844Z,0.34
2022-12-20T13:00:34.959Z,0.34
2022-12-20T13:01:51.159Z,0.31
2022-12-20T13:02:54.624Z,0.29
2022-12-20T13:04:04.214Z,0.26
2022-12-20T13:05:12.125Z,0.21
2022-12-20T13:06:30.215Z,0.16
2022-12-20T13:07:40.561Z,0.13
2022-12-20T13:08:49.604Z,0.07
2022-12-20T13:09:52.774Z,0.04
2022-12-20T13:10:58.812Z,0.01
2022-12-20T13:12:21.816Z,-0.04
2022-12-20T13:13:24.934Z,-0.07
2022-12-20T13:14:31.614Z,-0.09
2022-12-20T13:15:44.079Z,-0.13
2022-12-20T13:17:11.337Z,-0.14
2022-12-20T13:18:15.391Z,-0.15
2022-12-20T13:19:25.023Z,-0.17
2022-12-20T13:20:30.900Z,-0.19
2022-12-20T13:21:37.212Z,-0.19
2022-12-20T13:22:42.156Z,-0.19
2022-12-20T13:23:45.512Z,-0.20
2022-12-20T13:25:03.509Z,-0.19
2022-12-20T13:26:11.271Z,-0.18
2022-12-20T13:27:23.669Z,-0.19
2022-12-20T13:28:30.396Z,-0.20
2022-12-20T13:29:34.972Z,-0.20
2022-12-20T13:30:38.933Z,-0.21
2022-12-20T13:31:42.092Z,-0.21
2022-12-20T13:32:52.037Z,-0.21
2022-12-20T13:33:57.116Z,-0.21
2022-12-20T13:35:00.313Z,-0.22
2022-12-20T13:36:07.118Z,-0.23
2022-12-20T13:37:31.033Z,-0.23
2022-12-20T13:38:46.762Z,-0.25
2022-12-20T13:39:50.185Z,-0.27
2022-12-20T13:41:00.514Z,-0.29
2022-12-20T13:42:26.874Z,-0.29
2022-12-20T13:43:33.630Z,-0.31
2022-12-20T13:44:43.349Z,-0.32
2022-12-20T13:46:06.618Z,-0.33
2022-12-20T13:47:22.515Z,-0.32
2022-12-20T13:48:29.247Z,-0.31
2022-12-20T13:49:36.073Z,-0.28
2022-12-20T13:50:41.348Z,-0.27
2022-12-20T13:51:44.739Z,-0.25
2022-12-20T13:52:48.484Z,-0.24
2022-12-20T13:54:01.420Z,-0.24
2022-12-20T13:55:08.162Z,-0.23
2022-12-20T13:56:33.529Z,-0.22
2022-12-20T13:57:42.988Z,-0.22
2022-12-20T13:58:46.693Z,-0.23
2022-12-20T13:59:53.425Z,-0.22
2022-12-20T14:01:08.936Z,-0.22
2022-12-20T14:02:19.188Z,-0.23
2022-12-20T14:03:28.181Z,-0.23
2022-12-20T14:04:46.219Z,-0.24
2022-12-20T14:05:52.954Z,-0.25
2022-12-20T14:06:59.467Z,-0.27
2022-12-20T14:08:11.937Z,-0.29
2022-12-20T14:09:33.386Z,-0.29
2022-12-20T14:10:36.776Z,-0.31
2022-12-20T14:11:47.877Z,-0.35
2022-12-20T14:12:52.876Z,-0.39
2022-12-20T14:14:01.047Z,-0.41
2022-12-20T14:15:07.901Z,-0.43
2022-12-20T14:16:17.192Z,-0.45
2022-12-20T14:17:24.529Z,-0.48
2022-12-20T14:18:27.774Z,-0.50
2022-12-20T14:19:30.993Z,-0.51
2022-12-20T14:20:36.163Z,-0.52
2022-12-20T14:21:44.857Z,-0.52
2022-12-20T14:22:57.930Z,-0.53
2022-12-20T14:24:00.959Z,-0.52
2022-12-20T14:25:07.044Z,-0.52
2022-12-20T14:26:14.781Z,-0.53
2022-12-20T14:27:17.756Z,-0.53
2022-12-20T14:28:33.403Z,-0.54
2022-12-20T14:29:36.608Z,-0.58
2022-12-20T14:30:44.227Z,-0.61
2022-12-20T14:31:48.632Z,-0.63
2022-12-20T14:32:51.716Z,-0.65
2022-12-20T14:35:21.277Z,-0.59
2022-12-20T14:36:24.537Z,-0.70
2022-12-20T14:37:31.098Z,-0.71
2022-12-20T14:38:34.294Z,-0.72
2022-12-20T14:39:37.434Z,-0.73
2022-12-20T14:40:42.410Z,-0.73
2022-12-20T14:41:45.481Z,-0.74
2022-12-20T14:42:48.869Z,-0.73
2022-12-20T14:44:01.340Z,-0.72
2022-12-20T14:45:16.623Z,-0.72
2022-12-20T14:46:22.059Z,-0.72